Time,TemperatureF,DewpointF,PressureIn,WindDirection,WindDirectionDegrees,WindSpeedMPH,WindSpeedGustMPH,Humidity,HourlyPrecipIn,Conditions,Clouds,dailyrainin,SoftwareType,DateUTC
2014-10-01 00:00:00,51.5,34.8,29.86,West,270,4.3,4.3,53,0.00,,,0.00,WUHU216HW,2014-10-01 06:00:00,
2014-10-01 00:05:00,51.5,34.8,29.86,West,270,0.9,4.3,53,0.00,,,0.00,WUHU216HW,2014-10-01 06:05:00,
2014-10-01 00:10:00,51.5,34.8,29.86,SSE,158,1.6,3.4,53,0.00,,,0.00,WUHU216HW,2014-10-01 06:10:00,
2014-10-01 00:15:00,51.5,34.8,29.86,WSW,248,0.7,3.4,53,0.00,,,0.00,WUHU216HW,2014-10-01 06:15:00,
2014-10-01 00:20:00,51.1,34.6,29.86,West,270,0.4,1.8,53,0.00,,,0.00,WUHU216HW,2014-10-01 06:20:00,
2014-10-01 00:25:00,51.1,34.6,29.86,WNW,293,1.1,2.7,53,0.00,,,0.00,WUHU216HW,2014-10-01 06:25:00,
2014-10-01 00:30:00,50.9,34.4,29.86,SW,225,1.1,2.7,53,0.00,,,0.00,WUHU216HW,2014-10-01 06:30:00,
2014-10-01 00:35:00,50.8,34.2,29.86,SSW,203,2.2,2.2,53,0.00,,,0.00,WUHU216HW,2014-10-01 06:35:00,
2014-10-01 00:40:00,50.8,34.7,29.86,SSW,203,1.1,2.5,54,0.00,,,0.00,WUHU216HW,2014-10-01 06:40:00,
2014-10-01 00:42:00,50.8,34.7,29.86,SSW,203,3.4,3.4,54,0.00,,,0.00,WUHU216HW,2014-10-01 06:42:00,
2014-10-01 00:47:00,50.8,34.2,29.86,SSW,203,1.1,3.4,53,0.00,,,0.00,WUHU216HW,2014-10-01 06:47:00,
2014-10-01 00:52:00,50.8,34.2,29.86,WSW,248,0.0,2.9,53,0.00,,,0.00,WUHU216HW,2014-10-01 06:52:00,
2014-10-01 00:57:00,50.8,34.2,29.86,WSW,248,1.3,2.0,53,0.00,,,0.00,WUHU216HW,2014-10-01 06:57:00,
2014-10-01 01:02:00,50.8,34.2,29.86,West,270,1.6,2.0,53,0.00,,,0.00,WUHU216HW,2014-10-01 07:02:00,
2014-10-01 01:07:00,50.8,34.2,29.86,West,270,0.0,1.8,53,0.00,,,0.00,WUHU216HW,2014-10-01 07:07:00,
2014-10-01 01:12:00,50.8,34.2,29.86,West,270,0.0,1.8,53,0.00,,,0.00,WUHU216HW,2014-10-01 07:12:00,
2014-10-01 01:17:00,50.8,34.2,29.86,SW,225,1.1,2.0,53,0.00,,,0.00,WUHU216HW,2014-10-01 07:17:00,
2014-10-01 01:22:00,50.8,34.2,29.85,SSW,203,1.3,2.5,53,0.00,,,0.00,WUHU216HW,2014-10-01 07:22:00,
2014-10-01 01:27:00,50.6,34.0,29.85,SSW,203,0.9,2.5,53,0.00,,,0.00,WUHU216HW,2014-10-01 07:27:00,
2014-10-01 01:32:00,50.4,33.9,29.86,SSW,203,0.7,1.3,53,0.00,,,0.00,WUHU216HW,2014-10-01 07:32:00,
2014-10-01 01:37:00,50.2,33.8,29.86,SSW,203,2.5,2.7,53,0.00,,,0.00,WUHU216HW,2014-10-01 07:37:00,
2014-10-01 01:42:00,50.0,34.0,29.85,South,180,1.8,2.9,54,0.00,,,0.00,WUHU216HW,2014-10-01 07:42:00,
2014-10-01 01:46:00,50.0,34.0,29.85,SSW,203,2.5,2.9,54,0.00,,,0.00,WUHU216HW,2014-10-01 07:46:00,
2014-10-01 01:51:00,50.0,34.0,29.85,South,180,2.9,2.9,54,0.00,,,0.00,WUHU216HW,2014-10-01 07:51:00,
2014-10-01 01:56:00,50.0,34.0,29.85,SSW,203,4.7,5.4,54,0.00,,,0.00,WUHU216HW,2014-10-01 07:56:00,
2014-10-01 02:01:00,50.0,33.6,29.85,SW,225,2.5,5.4,53,0.00,,,0.00,WUHU216HW,2014-10-01 08:01:00,
2014-10-01 02:06:00,50.0,34.0,29.85,WSW,248,2.7,4.7,54,0.00,,,0.00,WUHU216HW,2014-10-01 08:06:00,
2014-10-01 02:11:00,50.0,34.0,29.85,SSW,203,1.6,4.0,54,0.00,,,0.00,WUHU216HW,2014-10-01 08:11:00,
2014-10-01 02:16:00,49.9,33.8,29.86,South,180,1.3,2.9,54,0.00,,,0.00,WUHU216HW,2014-10-01 08:16:00,
2014-10-01 02:21:00,49.7,33.7,29.86,SSW,203,2.9,4.3,54,0.00,,,0.00,WUHU216HW,2014-10-01 08:21:00,
2014-10-01 02:26:00,49.5,33.5,29.86,SSW,203,1.8,4.3,54,0.00,,,0.00,WUHU216HW,2014-10-01 08:26:00,
2014-10-01 02:31:00,49.5,33.5,29.86,SSW,203,1.1,4.0,54,0.00,,,0.00,WUHU216HW,2014-10-01 08:31:00,
2014-10-01 02:36:00,49.5,33.9,29.86,South,180,1.3,3.1,55,0.00,,,0.00,WUHU216HW,2014-10-01 08:36:00,
2014-10-01 02:41:00,49.3,33.8,29.86,SSW,203,4.0,4.0,55,0.00,,,0.00,WUHU216HW,2014-10-01 08:41:00,
2014-10-01 02:46:00,49.3,33.8,29.86,SSW,203,3.8,5.8,55,0.00,,,0.00,WUHU216HW,2014-10-01 08:46:00,
2014-10-01 02:51:00,49.5,33.9,29.86,SSE,158,4.9,5.8,55,0.00,,,0.00,WUHU216HW,2014-10-01 08:51:00,
2014-10-01 02:56:00,49.5,33.9,29.85,SSW,203,4.7,5.8,55,0.00,,,0.00,WUHU216HW,2014-10-01 08:56:00,
2014-10-01 03:01:00,49.5,33.9,29.85,SSW,203,3.4,5.4,55,0.00,,,0.00,WUHU216HW,2014-10-01 09:01:00,
2014-10-01 03:06:00,49.5,33.9,29.85,South,180,1.8,4.7,55,0.00,,,0.00,WUHU216HW,2014-10-01 09:06:00,
2014-10-01 03:11:00,49.3,33.8,29.85,SSW,203,2.5,6.0,55,0.00,,,0.00,WUHU216HW,2014-10-01 09:11:00,
2014-10-01 03:16:00,49.3,33.8,29.84,NNE,23,1.6,6.0,55,0.00,,,0.00,WUHU216HW,2014-10-01 09:16:00,
2014-10-01 03:21:00,49.3,33.8,29.85,South,180,1.8,3.1,55,0.00,,,0.00,WUHU216HW,2014-10-01 09:21:00,
2014-10-01 03:26:00,49.5,33.9,29.84,NNE,23,1.1,3.4,55,0.00,,,0.00,WUHU216HW,2014-10-01 09:26:00,
2014-10-01 03:31:00,49.7,34.1,29.84,SSW,203,4.3,4.3,55,0.00,,,0.00,WUHU216HW,2014-10-01 09:31:00,
2014-10-01 03:36:00,49.9,34.3,29.84,SSW,203,2.5,4.3,55,0.00,,,0.00,WUHU216HW,2014-10-01 09:36:00,
2014-10-01 03:41:00,49.9,34.3,29.84,SSW,203,1.8,3.6,55,0.00,,,0.00,WUHU216HW,2014-10-01 09:41:00,
2014-10-01 03:45:00,49.7,34.1,29.84,SSW,203,0.0,2.9,55,0.00,,,0.00,WUHU216HW,2014-10-01 09:45:00,
2014-10-01 03:50:00,49.5,33.9,29.84,SW,225,1.1,1.8,55,0.00,,,0.00,WUHU216HW,2014-10-01 09:50:00,
2014-10-01 03:55:00,49.3,33.8,29.84,SSW,203,0.0,1.8,55,0.00,,,0.00,WUHU216HW,2014-10-01 09:55:00,
2014-10-01 04:00:00,49.3,33.8,29.84,NW,315,0.4,2.5,55,0.00,,,0.00,WUHU216HW,2014-10-01 10:00:00,
2014-10-01 04:05:00,49.3,33.8,29.85,SSW,203,2.2,2.5,55,0.00,,,0.00,WUHU216HW,2014-10-01 10:05:00,
2014-10-01 04:10:00,49.5,33.9,29.85,SSW,203,1.8,2.5,55,0.00,,,0.00,WUHU216HW,2014-10-01 10:10:00,
2014-10-01 04:15:00,49.5,33.9,29.85,SSW,203,2.7,2.7,55,0.00,,,0.00,WUHU216HW,2014-10-01 10:15:00,
2014-10-01 04:20:00,49.5,33.9,29.84,South,180,2.5,3.4,55,0.00,,,0.00,WUHU216HW,2014-10-01 10:20:00,
2014-10-01 04:25:00,49.5,33.9,29.84,SSW,203,2.5,3.4,55,0.00,,,0.00,WUHU216HW,2014-10-01 10:25:00,
2014-10-01 04:30:00,49.5,33.9,29.85,SSW,203,3.8,4.7,55,0.00,,,0.00,WUHU216HW,2014-10-01 10:30:00,
2014-10-01 04:35:00,49.7,34.1,29.84,SSW,203,4.0,4.7,55,0.00,,,0.00,WUHU216HW,2014-10-01 10:35:00,
2014-10-01 04:40:00,49.7,34.1,29.85,SSW,203,2.7,4.0,55,0.00,,,0.00,WUHU216HW,2014-10-01 10:40:00,
2014-10-01 04:45:00,49.9,34.3,29.85,SSW,203,3.4,3.8,55,0.00,,,0.00,WUHU216HW,2014-10-01 10:45:00,
2014-10-01 04:50:00,49.9,34.3,29.85,SSW,203,1.1,3.8,55,0.00,,,0.00,WUHU216HW,2014-10-01 10:50:00,
2014-10-01 04:55:00,49.7,34.1,29.85,South,180,2.5,3.8,55,0.00,,,0.00,WUHU216HW,2014-10-01 10:55:00,
2014-10-01 05:00:00,49.7,34.1,29.85,SSE,158,1.3,2.7,55,0.00,,,0.00,WUHU216HW,2014-10-01 11:00:00,
2014-10-01 05:05:00,49.7,34.1,29.84,South,180,1.8,2.7,55,0.00,,,0.00,WUHU216HW,2014-10-01 11:05:00,
2014-10-01 05:10:00,49.7,34.1,29.84,SSW,203,0.4,2.7,55,0.00,,,0.00,WUHU216HW,2014-10-01 11:10:00,
2014-10-01 05:15:00,49.9,34.3,29.84,SSW,203,1.6,2.2,55,0.00,,,0.00,WUHU216HW,2014-10-01 11:15:00,
2014-10-01 05:20:00,49.9,34.3,29.84,SSW,203,1.8,2.0,55,0.00,,,0.00,WUHU216HW,2014-10-01 11:20:00,
2014-10-01 05:25:00,49.9,33.8,29.84,SSW,203,3.1,3.1,54,0.00,,,0.00,WUHU216HW,2014-10-01 11:25:00,
2014-10-01 05:30:00,49.9,33.8,29.85,SSW,203,3.4,3.8,54,0.00,,,0.00,WUHU216HW,2014-10-01 11:30:00,
2014-10-01 05:35:00,49.9,33.8,29.85,SSW,203,4.7,4.7,54,0.00,,,0.00,WUHU216HW,2014-10-01 11:35:00,
2014-10-01 05:40:00,49.9,33.8,29.85,SSW,203,3.4,4.7,54,0.00,,,0.00,WUHU216HW,2014-10-01 11:40:00,
2014-10-01 05:45:00,49.9,33.8,29.85,SSW,203,3.8,4.3,54,0.00,,,0.00,WUHU216HW,2014-10-01 11:45:00,
2014-10-01 05:50:00,49.9,33.8,29.85,South,180,2.2,4.3,54,0.00,,,0.00,WUHU216HW,2014-10-01 11:50:00,
2014-10-01 05:55:00,49.9,33.8,29.85,SSW,203,2.7,5.1,54,0.00,,,0.00,WUHU216HW,2014-10-01 11:55:00,
2014-10-01 06:00:00,50.0,34.0,29.86,South,180,2.2,5.1,54,0.00,,,0.00,WUHU216HW,2014-10-01 12:00:00,
2014-10-01 06:05:00,50.0,34.0,29.86,SW,225,2.0,4.3,54,0.00,,,0.00,WUHU216HW,2014-10-01 12:05:00,
2014-10-01 06:10:00,49.9,33.8,29.86,North,0,0.2,3.4,54,0.00,,,0.00,WUHU216HW,2014-10-01 12:10:00,
2014-10-01 06:15:00,49.9,33.8,29.86,WSW,248,0.2,3.4,54,0.00,,,0.00,WUHU216HW,2014-10-01 12:15:00,
2014-10-01 06:20:00,49.9,34.3,29.86,WSW,248,0.0,2.0,55,0.00,,,0.00,WUHU216HW,2014-10-01 12:20:00,
2014-10-01 06:25:00,49.7,33.7,29.86,SSW,203,1.8,2.0,54,0.00,,,0.00,WUHU216HW,2014-10-01 12:25:00,
2014-10-01 06:30:00,49.7,33.7,29.86,SSW,203,1.1,2.0,54,0.00,,,0.00,WUHU216HW,2014-10-01 12:30:00,
2014-10-01 06:35:00,49.7,33.7,29.86,SSW,203,0.0,1.8,54,0.00,,,0.00,WUHU216HW,2014-10-01 12:35:00,
2014-10-01 06:40:00,49.7,34.1,29.86,SSW,203,2.9,2.9,55,0.00,,,0.00,WUHU216HW,2014-10-01 12:40:00,
2014-10-01 06:45:00,49.7,33.7,29.87,SW,225,1.6,2.9,54,0.00,,,0.00,WUHU216HW,2014-10-01 12:45:00,
2014-10-01 06:50:00,49.7,33.7,29.87,South,180,1.8,2.7,54,0.00,,,0.00,WUHU216HW,2014-10-01 12:50:00,
2014-10-01 06:55:00,49.9,33.8,29.87,SSW,203,0.0,2.0,54,0.00,,,0.00,WUHU216HW,2014-10-01 12:55:00,
2014-10-01 07:00:00,49.7,34.1,29.87,SSW,203,0.0,2.0,55,0.00,,,0.00,WUHU216HW,2014-10-01 13:00:00,
2014-10-01 07:05:00,49.7,34.1,29.87,SW,225,0.0,0.9,55,0.00,,,0.00,WUHU216HW,2014-10-01 13:05:00,
2014-10-01 07:10:00,49.7,34.1,29.87,West,270,1.8,1.8,55,0.00,,,0.00,WUHU216HW,2014-10-01 13:10:00,
2014-10-01 07:15:00,49.7,34.1,29.87,WSW,248,1.6,1.8,55,0.00,,,0.00,WUHU216HW,2014-10-01 13:15:00,
2014-10-01 07:20:00,49.9,34.3,29.87,WSW,248,0.9,1.8,55,0.00,,,0.00,WUHU216HW,2014-10-01 13:20:00,
2014-10-01 07:25:00,49.9,34.3,29.87,WSW,248,1.3,1.6,55,0.00,,,0.00,WUHU216HW,2014-10-01 13:25:00,
2014-10-01 07:30:00,49.9,34.3,29.87,SW,225,0.0,1.3,55,0.00,,,0.00,WUHU216HW,2014-10-01 13:30:00,
2014-10-01 07:35:00,50.0,34.5,29.87,SSW,203,0.0,1.1,55,0.00,,,0.00,WUHU216HW,2014-10-01 13:35:00,
2014-10-01 07:40:00,50.0,34.9,29.87,SW,225,0.0,1.1,56,0.00,,,0.00,WUHU216HW,2014-10-01 13:40:00,
2014-10-01 07:44:00,50.0,34.9,29.87,West,270,0.0,1.1,56,0.00,,,0.00,WUHU216HW,2014-10-01 13:44:00,
2014-10-01 07:49:00,50.2,35.1,29.87,West,270,0.7,1.1,56,0.00,,,0.00,WUHU216HW,2014-10-01 13:49:00,
2014-10-01 07:54:00,50.4,35.3,29.87,West,270,0.0,0.7,56,0.00,,,0.00,WUHU216HW,2014-10-01 13:54:00,
2014-10-01 07:59:00,50.4,35.3,29.88,SSW,203,0.7,1.6,56,0.00,,,0.00,WUHU216HW,2014-10-01 13:59:00,
2014-10-01 08:04:00,50.6,35.4,29.88,SSW,203,1.8,1.8,56,0.00,,,0.00,WUHU216HW,2014-10-01 14:04:00,
2014-10-01 08:09:00,50.8,35.6,29.88,SSW,203,1.6,2.2,56,0.00,,,0.00,WUHU216HW,2014-10-01 14:09:00,
2014-10-01 08:11:00,50.8,35.6,29.87,South,180,1.6,2.2,56,0.00,,,0.00,WUHU216HW,2014-10-01 14:11:00,
2014-10-01 08:16:00,50.9,36.2,29.88,North,0,1.3,2.2,57,0.00,,,0.00,WUHU216HW,2014-10-01 14:16:00,
2014-10-01 08:21:00,51.1,35.9,29.87,WNW,293,1.8,1.8,56,0.00,,,0.00,WUHU216HW,2014-10-01 14:21:00,
2014-10-01 08:26:00,51.1,35.9,29.87,West,270,1.3,1.8,56,0.00,,,0.00,WUHU216HW,2014-10-01 14:26:00,
2014-10-01 08:31:00,51.3,36.1,29.87,West,270,0.7,1.6,56,0.00,,,0.00,WUHU216HW,2014-10-01 14:31:00,
2014-10-01 08:36:00,51.3,36.1,29.87,WSW,248,0.0,1.6,56,0.00,,,0.00,WUHU216HW,2014-10-01 14:36:00,
2014-10-01 08:41:00,51.5,36.2,29.87,WSW,248,0.0,0.4,56,0.00,,,0.00,WUHU216HW,2014-10-01 14:41:00,
2014-10-01 08:46:00,51.5,36.2,29.87,WSW,248,1.6,2.5,56,0.00,,,0.00,WUHU216HW,2014-10-01 14:46:00,
2014-10-01 08:51:00,51.5,36.6,29.87,WSW,248,0.0,2.5,57,0.00,,,0.00,WUHU216HW,2014-10-01 14:51:00,
2014-10-01 08:56:00,51.7,36.8,29.87,WNW,293,0.9,1.6,57,0.00,,,0.00,WUHU216HW,2014-10-01 14:56:00,
2014-10-01 09:01:00,51.7,36.8,29.87,WNW,293,0.0,1.6,57,0.00,,,0.00,WUHU216HW,2014-10-01 15:01:00,
2014-10-01 09:06:00,51.8,37.4,29.87,NE,45,2.0,2.0,58,0.00,,,0.00,WUHU216HW,2014-10-01 15:06:00,
2014-10-01 09:11:00,52.0,37.2,29.87,ENE,68,1.6,3.1,57,0.00,,,0.00,WUHU216HW,2014-10-01 15:11:00,
2014-10-01 09:16:00,52.4,37.5,29.87,ENE,68,1.8,4.0,57,0.00,,,0.00,WUHU216HW,2014-10-01 15:16:00,
2014-10-01 09:21:00,52.9,37.6,29.87,NE,45,1.8,4.0,56,0.00,,,0.00,WUHU216HW,2014-10-01 15:21:00,
2014-10-01 09:26:00,53.5,37.6,29.87,NE,45,0.0,2.5,55,0.00,,,0.00,WUHU216HW,2014-10-01 15:26:00,
2014-10-01 09:31:00,53.8,38.0,29.87,ESE,113,0.0,2.5,55,0.00,,,0.00,WUHU216HW,2014-10-01 15:31:00,
2014-10-01 09:36:00,54.5,38.2,29.87,East,90,0.9,1.6,54,0.00,,,0.00,WUHU216HW,2014-10-01 15:36:00,
2014-10-01 09:40:00,54.9,38.4,29.87,SSW,203,0.9,1.3,54,0.00,,,0.00,WUHU216HW,2014-10-01 15:40:00,
2014-10-01 09:45:00,55.4,38.5,29.87,ESE,113,0.9,1.1,53,0.00,,,0.00,WUHU216HW,2014-10-01 15:45:00,
2014-10-01 09:50:00,56.0,39.1,29.87,ESE,113,0.9,1.8,53,0.00,,,0.00,WUHU216HW,2014-10-01 15:50:00,
2014-10-01 09:55:00,56.2,38.7,29.86,SSE,158,0.0,2.0,52,0.00,,,0.00,WUHU216HW,2014-10-01 15:55:00,
2014-10-01 10:00:00,56.3,38.9,29.87,ENE,68,0.0,2.0,52,0.00,,,0.00,WUHU216HW,2014-10-01 16:00:00,
2014-10-01 10:05:00,56.3,38.9,29.87,SSW,203,0.2,1.8,52,0.00,,,0.00,WUHU216HW,2014-10-01 16:05:00,
2014-10-01 10:10:00,56.3,38.9,29.87,ESE,113,0.0,1.1,52,0.00,,,0.00,WUHU216HW,2014-10-01 16:10:00,
2014-10-01 10:15:00,56.5,39.1,29.87,East,90,2.5,4.7,52,0.00,,,0.00,WUHU216HW,2014-10-01 16:15:00,
2014-10-01 10:20:00,56.5,39.1,29.87,North,0,1.8,4.7,52,0.00,,,0.00,WUHU216HW,2014-10-01 16:20:00,